createdAt,value
2024-01-03T00:02:00.806Z,5.31
2024-01-03T00:07:03.522Z,5.19
2024-01-03T00:12:09.899Z,5.24
2024-01-03T00:17:12.839Z,5.30
2024-01-03T00:22:20.629Z,5.34
2024-01-03T00:27:27.696Z,5.34
2024-01-03T00:32:30.418Z,5.40
2024-01-03T00:37:37.683Z,5.30
2024-01-03T00:42:41.585Z,5.34
2024-01-03T00:47:44.346Z,5.39
2024-01-03T00:52:47.030Z,5.38
2024-01-03T00:57:50.970Z,5.38
2024-01-03T01:02:53.711Z,5.35
2024-01-03T01:07:56.606Z,5.46
2024-01-03T01:13:00.541Z,5.58
2024-01-03T01:18:03.231Z,5.68
2024-01-03T01:23:05.960Z,5.72
2024-01-03T01:28:10.244Z,5.75
2024-01-03T01:33:13.081Z,5.80
2024-01-03T01:38:15.738Z,5.78
2024-01-03T01:43:19.668Z,5.77
2024-01-03T01:48:23.865Z,5.70
2024-01-03T01:53:26.636Z,5.76
2024-01-03T01:58:31.334Z,5.84
2024-01-03T02:03:34.698Z,5.86
2024-01-03T02:08:38.097Z,5.93
2024-01-03T02:13:45.069Z,6.02
2024-01-03T02:18:49.800Z,6.05
2024-01-03T02:23:53.881Z,6.10
2024-01-03T02:28:56.564Z,6.16
2024-01-03T02:33:59.424Z,6.12
2024-01-03T02:39:04.908Z,6.10
2024-01-03T02:44:07.492Z,6.12
2024-01-03T02:49:11.930Z,6.13
2024-01-03T02:54:15.914Z,6.17
2024-01-03T02:59:18.509Z,6.20
2024-01-03T03:04:21.104Z,6.22
2024-01-03T03:09:25.139Z,6.24
2024-01-03T03:14:27.779Z,6.30
2024-01-03T03:19:30.469Z,6.35
2024-01-03T03:24:34.482Z,6.41
2024-01-03T03:29:37.098Z,6.46
2024-01-03T03:34:39.752Z,6.50
2024-01-03T03:39:43.717Z,6.52
2024-01-03T03:44:47.002Z,6.56
2024-01-03T03:49:49.717Z,6.62
2024-01-03T03:54:53.632Z,6.67
2024-01-03T03:59:56.249Z,6.71
2024-01-03T04:04:59.003Z,6.75
2024-01-03T04:10:02.925Z,6.78
2024-01-03T04:15:06.302Z,6.82
2024-01-03T04:20:10.575Z,6.82
2024-01-03T04:25:14.866Z,6.86
2024-01-03T04:30:17.461Z,6.88
2024-01-03T04:35:20.156Z,6.91
2024-01-03T04:40:24.104Z,6.93
2024-01-03T04:45:26.829Z,6.98
2024-01-03T04:50:29.464Z,7.06
2024-01-03T04:55:33.406Z,7.10
2024-01-03T05:00:37.993Z,7.18
2024-01-03T05:05:40.801Z,7.27
2024-01-03T05:10:44.756Z,7.33
2024-01-03T05:15:47.335Z,7.42
2024-01-03T05:20:50.006Z,7.49
2024-01-03T05:25:53.944Z,7.57
2024-01-03T05:30:56.610Z,7.68
2024-01-03T05:35:59.241Z,7.71
2024-01-03T05:41:05.171Z,7.76
2024-01-03T05:46:09.167Z,7.77
2024-01-03T05:51:11.927Z,7.80
2024-01-03T05:56:15.913Z,7.85
2024-01-03T06:01:19.015Z,7.85
2024-01-03T06:06:21.797Z,7.85
2024-01-03T06:11:25.775Z,7.88
2024-01-03T06:16:28.438Z,7.88
2024-01-03T06:21:31.016Z,7.90
2024-01-03T06:26:35.075Z,7.96
2024-01-03T06:31:37.748Z,7.97
2024-01-03T06:36:40.332Z,8.00
2024-01-03T06:41:44.278Z,8.07
2024-01-03T06:46:46.855Z,8.09
2024-01-03T06:51:51.641Z,8.10
2024-01-03T06:56:55.800Z,8.08
2024-01-03T07:01:58.860Z,8.09
2024-01-03T07:07:01.615Z,8.13
2024-01-03T07:12:06.197Z,8.08
2024-01-03T07:17:08.978Z,8.08
2024-01-03T07:22:11.651Z,8.10
2024-01-03T07:27:16.125Z,8.13
2024-01-03T07:32:18.771Z,8.15
2024-01-03T07:37:21.599Z,8.16
2024-01-03T07:42:25.540Z,8.17
2024-01-03T07:47:28.174Z,8.19
2024-01-03T07:52:30.825Z,8.19
2024-01-03T07:57:34.748Z,8.23
2024-01-03T08:02:37.393Z,8.21
2024-01-03T08:07:39.975Z,8.20
2024-01-03T08:12:44.024Z,8.20
2024-01-03T08:17:47.080Z,8.25
2024-01-03T08:22:50.744Z,8.26
2024-01-03T08:27:54.690Z,8.26
2024-01-03T08:32:57.493Z,8.28
2024-01-03T08:38:00.105Z,8.27
2024-01-03T08:43:04.112Z,8.29
2024-01-03T08:48:07.881Z,8.29
2024-01-03T08:53:10.717Z,8.32
2024-01-03T08:58:14.732Z,8.31
2024-01-03T09:03:17.332Z,8.33
2024-01-03T09:08:19.985Z,8.37
2024-01-03T09:13:23.936Z,8.36
2024-01-03T09:18:26.720Z,8.38
2024-01-03T09:23:29.457Z,8.39
2024-01-03T09:28:33.497Z,8.38
2024-01-03T09:33:36.521Z,8.39
2024-01-03T09:38:40.018Z,8.41
2024-01-03T09:43:44.484Z,8.42
2024-01-03T09:48:48.733Z,8.44
2024-01-03T09:53:54.788Z,8.45
2024-01-03T09:58:58.776Z,8.45
2024-01-03T10:04:01.433Z,8.46
2024-01-03T10:09:06.629Z,8.47
2024-01-03T10:14:20.048Z,8.51
2024-01-03T10:19:23.962Z,8.51
2024-01-03T10:24:27.373Z,8.52
2024-01-03T10:29:34.613Z,8.56
2024-01-03T10:34:38.698Z,8.59
2024-01-03T10:39:43.917Z,8.60
2024-01-03T10:44:48.918Z,8.62
2024-01-03T10:49:51.587Z,8.64
2024-01-03T10:54:58.586Z,8.64
2024-01-03T11:00:13.237Z,8.69
2024-01-03T11:05:24.037Z,8.73
2024-01-03T11:10:49.558Z,8.76
2024-01-03T11:15:53.981Z,8.73
2024-01-03T11:20:56.585Z,8.78
2024-01-03T11:25:59.175Z,8.88
2024-01-03T11:31:03.748Z,8.88
2024-01-03T11:36:07.639Z,8.95
2024-01-03T11:41:10.958Z,9.06
2024-01-03T11:46:16.659Z,9.18
2024-01-03T11:51:24.119Z,9.33
2024-01-03T11:56:30.367Z,9.45
2024-01-03T12:01:37.381Z,9.53
2024-01-03T12:06:40.960Z,9.59
2024-01-03T12:11:43.939Z,9.60
2024-01-03T12:16:48.649Z,9.62
2024-01-03T12:22:00.605Z,9.77
2024-01-03T12:27:03.255Z,9.68
2024-01-03T12:32:14.738Z,9.73
2024-01-03T12:37:17.774Z,9.72
2024-01-03T12:42:25.014Z,9.80
2024-01-03T12:47:32.853Z,9.90
2024-01-03T12:52:36.586Z,9.92
2024-01-03T12:57:41.160Z,10.01
2024-01-03T13:02:45.177Z,10.02
2024-01-03T13:07:47.829Z,10.06
2024-01-03T13:12:51.589Z,10.13
2024-01-03T13:17:55.879Z,10.20
2024-01-03T13:22:58.644Z,10.22
2024-01-03T13:28:01.241Z,10.17
2024-01-03T13:33:07.108Z,10.17
2024-01-03T13:38:12.204Z,10.15
2024-01-03T13:43:14.915Z,10.18
2024-01-03T13:48:19.404Z,10.09
2024-01-03T13:53:22.227Z,10.06
2024-01-03T13:58:24.898Z,10.00
2024-01-03T14:03:29.209Z,9.97
2024-01-03T14:08:31.893Z,9.89
2024-01-03T14:13:34.623Z,9.84
2024-01-03T14:18:38.618Z,9.87
2024-01-03T14:23:41.411Z,9.76
2024-01-03T14:28:44.041Z,9.73
2024-01-03T14:33:48.272Z,9.66
2024-01-03T14:38:51.118Z,9.60
2024-01-03T14:44:00.457Z,9.54
2024-01-03T14:49:05.026Z,9.49
2024-01-03T14:54:07.943Z,9.43
2024-01-03T14:59:12.524Z,9.39
2024-01-03T15:04:16.984Z,9.36
2024-01-03T15:09:19.674Z,9.32
2024-01-03T15:14:23.056Z,9.30
2024-01-03T15:19:27.239Z,9.28
2024-01-03T15:24:29.936Z,9.22
2024-01-03T15:29:32.769Z,9.24
2024-01-03T15:34:41.557Z,9.24
2024-01-03T15:39:45.648Z,9.24
2024-01-03T15:44:49.439Z,9.26
2024-01-03T15:49:53.467Z,9.24
2024-01-03T15:54:56.048Z,9.23
2024-01-03T15:59:58.676Z,9.20
2024-01-03T16:05:02.786Z,9.17
2024-01-03T16:10:06.592Z,9.08
2024-01-03T16:15:09.416Z,9.09
2024-01-03T16:20:14.681Z,9.08
2024-01-03T16:25:17.361Z,9.05
2024-01-03T16:30:20.096Z,8.98
2024-01-03T16:35:24.144Z,8.91
2024-01-03T16:40:26.824Z,8.98
2024-01-03T16:45:29.416Z,9.13
2024-01-03T16:50:33.383Z,9.23
2024-01-03T16:55:36.730Z,9.33
2024-01-03T17:00:39.419Z,9.49
2024-01-03T17:05:43.367Z,9.62
2024-01-03T17:10:46.368Z,9.85
2024-01-03T17:15:48.955Z,9.95
2024-01-03T17:20:52.910Z,10.04
2024-01-03T17:25:55.511Z,10.21
2024-01-03T17:30:58.168Z,10.41
2024-01-03T17:36:07.236Z,10.63
2024-01-03T17:41:19.862Z,10.77
2024-01-03T17:46:23.015Z,10.89
2024-01-03T17:51:26.940Z,10.83
2024-01-03T17:56:30.035Z,10.68
2024-01-03T18:01:34.021Z,10.65
2024-01-03T18:06:38.024Z,10.71
2024-01-03T18:11:41.214Z,10.88
2024-01-03T18:16:43.829Z,10.79
2024-01-03T18:21:47.792Z,10.82
2024-01-03T18:26:50.454Z,10.77
2024-01-03T18:31:53.114Z,10.70
2024-01-03T18:36:57.066Z,10.69
2024-01-03T18:41:59.837Z,10.59
2024-01-03T18:47:03.157Z,10.50
2024-01-03T18:52:07.794Z,10.40
2024-01-03T18:57:12.112Z,10.32
2024-01-03T19:02:15.480Z,10.24
2024-01-03T19:07:19.501Z,10.38
2024-01-03T19:12:22.081Z,10.47
2024-01-03T19:17:24.811Z,10.58
2024-01-03T19:22:31.774Z,10.63
2024-01-03T19:27:34.363Z,10.67
2024-01-03T19:32:37.051Z,10.54
2024-01-03T19:37:41.026Z,10.39
2024-01-03T19:42:43.711Z,10.35
2024-01-03T19:47:46.526Z,10.35
2024-01-03T19:52:50.592Z,10.27
2024-01-03T19:57:54.574Z,10.19
2024-01-03T20:02:57.187Z,10.14
2024-01-03T20:08:01.693Z,10.07
2024-01-03T20:13:05.624Z,9.91
2024-01-03T20:18:08.887Z,9.89
2024-01-03T20:23:14.071Z,9.80
2024-01-03T20:28:16.672Z,9.71
2024-01-03T20:33:19.369Z,9.60
2024-01-03T20:38:23.452Z,9.50
2024-01-03T20:43:26.048Z,9.48
2024-01-03T20:48:29.199Z,9.42
2024-01-03T20:53:33.499Z,9.40
2024-01-03T20:58:36.114Z,9.38
2024-01-03T21:03:39.770Z,9.37
2024-01-03T21:08:43.719Z,9.31
2024-01-03T21:13:46.319Z,9.23
2024-01-03T21:18:49.279Z,9.17
2024-01-03T21:23:53.979Z,9.09
2024-01-03T21:28:56.679Z,9.08
2024-01-03T21:33:59.967Z,9.09
2024-01-03T21:39:07.153Z,9.11
2024-01-03T21:44:09.793Z,9.07
2024-01-03T21:49:12.584Z,9.05
2024-01-03T21:54:16.649Z,9.05
2024-01-03T21:59:19.278Z,9.05
2024-01-03T22:04:21.911Z,9.11
2024-01-03T22:09:25.897Z,9.12
2024-01-03T22:14:30.115Z,9.11
2024-01-03T22:19:34.501Z,9.09
2024-01-03T22:24:38.658Z,9.06
2024-01-03T22:29:41.351Z,9.01
2024-01-03T22:34:44.011Z,8.94
2024-01-03T22:39:47.966Z,8.96
2024-01-03T22:44:50.570Z,8.86
2024-01-03T22:49:53.249Z,8.80
2024-01-03T22:54:57.179Z,8.78
2024-01-03T22:59:59.928Z,8.81
2024-01-03T23:05:02.547Z,8.81
2024-01-03T23:10:07.475Z,8.77
2024-01-03T23:15:10.919Z,8.76
2024-01-03T23:20:13.750Z,8.67
2024-01-03T23:25:18.258Z,8.61
2024-01-03T23:30:22.763Z,8.60
2024-01-03T23:35:25.578Z,8.57
2024-01-03T23:40:29.600Z,8.56
2024-01-03T23:45:32.209Z,8.58
2024-01-03T23:50:34.921Z,8.55
2024-01-03T23:55:38.854Z,8.46
